Terminal Aerodrome Forecast
Issued by NWS

Home | Current Version | Previous Version | Text Only | Print | Product List | Glossary On
Versions: 1 2 3 4 5 6 7 8 9 10 11 12 13 14 15
000
FTUS43 KAPX 060538
TAFMBL
TAF
KMBL 060538Z 0606/0706 VRB03KT P6SM SCT120 BKN220
     FM061200 10006KT P6SM SCT009 OVC100
     FM061800 27007KT P6SM SCT035 BKN080
     FM070100 12003KT P6SM BKN100
      AMD LTD TO CLD VIS AND WIND=

USA.gov is the U.S. government's official web portal to all federal, state and local government web resources and services.